sensor_id;sensor_type;location;lat;lon;timestamp;P1;durP1;ratioP1;P2;durP2;ratioP2
14030;SDS011;7090;49.436;8.490;2023-07-02T00:01:43;6.38;;;6.07;;
14030;SDS011;7090;49.436;8.490;2023-07-02T00:04:09;6.22;;;5.93;;
14030;SDS011;7090;49.436;8.490;2023-07-02T00:06:38;5.80;;;5.60;;
14030;SDS011;7090;49.436;8.490;2023-07-02T00:09:08;5.65;;;5.45;;
14030;SDS011;7090;49.436;8.490;2023-07-02T00:11:36;5.70;;;5.50;;
14030;SDS011;7090;49.436;8.490;2023-07-02T00:14:02;6.10;;;5.90;;
14030;SDS011;7090;49.436;8.490;2023-07-02T00:16:28;6.00;;;5.80;;
14030;SDS011;7090;49.436;8.490;2023-07-02T00:18:54;5.85;;;5.65;;
14030;SDS011;7090;49.436;8.490;2023-07-02T00:21:19;7.05;;;6.75;;
14030;SDS011;7090;49.436;8.490;2023-07-02T00:23:45;6.63;;;6.32;;
14030;SDS011;7090;49.436;8.490;2023-07-02T00:26:12;7.75;;;7.00;;
14030;SDS011;7090;49.436;8.490;2023-07-02T00:28:37;6.20;;;6.00;;
14030;SDS011;7090;49.436;8.490;2023-07-02T00:31:03;6.57;;;6.28;;
14030;SDS011;7090;49.436;8.490;2023-07-02T00:33:29;6.60;;;6.20;;
14030;SDS011;7090;49.436;8.490;2023-07-02T00:35:56;6.90;;;6.60;;
14030;SDS011;7090;49.436;8.490;2023-07-02T00:38:22;5.65;;;5.45;;
14030;SDS011;7090;49.436;8.490;2023-07-02T00:40:48;6.30;;;6.00;;
14030;SDS011;7090;49.436;8.490;2023-07-02T00:43:14;6.43;;;6.03;;
14030;SDS011;7090;49.436;8.490;2023-07-02T00:45:39;6.50;;;6.18;;
14030;SDS011;7090;49.436;8.490;2023-07-02T00:48:05;6.97;;;6.68;;
14030;SDS011;7090;49.436;8.490;2023-07-02T00:50:31;6.50;;;6.20;;
14030;SDS011;7090;49.436;8.490;2023-07-02T00:52:57;6.43;;;6.13;;
14030;SDS011;7090;49.436;8.490;2023-07-02T00:55:23;6.05;;;5.85;;
14030;SDS011;7090;49.436;8.490;2023-07-02T00:57:49;7.10;;;6.70;;
14030;SDS011;7090;49.436;8.490;2023-07-02T01:00:15;5.70;;;5.50;;
14030;SDS011;7090;49.436;8.490;2023-07-02T01:02:40;7.28;;;6.15;;
14030;SDS011;7090;49.436;8.490;2023-07-02T01:05:18;6.07;;;5.88;;
14030;SDS011;7090;49.436;8.490;2023-07-02T01:07:46;6.28;;;6.07;;
14030;SDS011;7090;49.436;8.490;2023-07-02T01:10:12;6.07;;;5.85;;
14030;SDS011;7090;49.436;8.490;2023-07-02T01:12:37;6.07;;;5.88;;
14030;SDS011;7090;49.436;8.490;2023-07-02T01:15:04;7.05;;;6.68;;
14030;SDS011;7090;49.436;8.490;2023-07-02T01:17:31;6.07;;;5.88;;
14030;SDS011;7090;49.436;8.490;2023-07-02T01:20:06;5.68;;;5.47;;
14030;SDS011;7090;49.436;8.490;2023-07-02T01:22:34;6.38;;;6.07;;
14030;SDS011;7090;49.436;8.490;2023-07-02T01:25:00;6.60;;;6.20;;
14030;SDS011;7090;49.436;8.490;2023-07-02T01:27:27;6.38;;;6.10;;
14030;SDS011;7090;49.436;8.490;2023-07-02T01:29:54;15.93;;;6.50;;
14030;SDS011;7090;49.436;8.490;2023-07-02T01:32:20;7.07;;;6.57;;
14030;SDS011;7090;49.436;8.490;2023-07-02T01:34:46;6.78;;;6.47;;
14030;SDS011;7090;49.436;8.490;2023-07-02T01:37:13;6.53;;;6.22;;
14030;SDS011;7090;49.436;8.490;2023-07-02T01:39:39;6.50;;;6.10;;
14030;SDS011;7090;49.436;8.490;2023-07-02T01:42:09;6.50;;;6.20;;
14030;SDS011;7090;49.436;8.490;2023-07-02T01:44:36;5.38;;;5.18;;
14030;SDS011;7090;49.436;8.490;2023-07-02T01:47:02;5.30;;;5.10;;
14030;SDS011;7090;49.436;8.490;2023-07-02T01:49:29;5.57;;;5.38;;
14030;SDS011;7090;49.436;8.490;2023-07-02T01:51:55;5.75;;;5.55;;
14030;SDS011;7090;49.436;8.490;2023-07-02T01:54:21;6.50;;;6.20;;
14030;SDS011;7090;49.436;8.490;2023-07-02T01:56:48;6.10;;;5.80;;
14030;SDS011;7090;49.436;8.490;2023-07-02T01:59:14;6.10;;;5.88;;
14030;SDS011;7090;49.436;8.490;2023-07-02T02:01:39;5.53;;;5.32;;
14030;SDS011;7090;49.436;8.490;2023-07-02T02:04:05;5.70;;;5.50;;
14030;SDS011;7090;49.436;8.490;2023-07-02T02:06:35;5.88;;;5.68;;
14030;SDS011;7090;49.436;8.490;2023-07-02T02:09:01;6.03;;;5.82;;
14030;SDS011;7090;49.436;8.490;2023-07-02T02:11:29;6.32;;;6.07;;
14030;SDS011;7090;49.436;8.490;2023-07-02T02:13:55;6.68;;;6.28;;
14030;SDS011;7090;49.436;8.490;2023-07-02T02:16:20;5.50;;;5.30;;
14030;SDS011;7090;49.436;8.490;2023-07-02T02:18:46;6.88;;;6.57;;
14030;SDS011;7090;49.436;8.490;2023-07-02T02:21:12;5.80;;;5.60;;
14030;SDS011;7090;49.436;8.490;2023-07-02T02:23:37;9.57;;;6.25;;
14030;SDS011;7090;49.436;8.490;2023-07-02T02:26:03;6.50;;;6.20;;
14030;SDS011;7090;49.436;8.490;2023-07-02T02:28:28;5.45;;;5.25;;
14030;SDS011;7090;49.436;8.490;2023-07-02T02:30:54;5.68;;;5.47;;
14030;SDS011;7090;49.436;8.490;2023-07-02T02:33:21;7.07;;;6.43;;
14030;SDS011;7090;49.436;8.490;2023-07-02T02:35:46;6.30;;;6.00;;
14030;SDS011;7090;49.436;8.490;2023-07-02T02:38:13;6.07;;;5.88;;
14030;SDS011;7090;49.436;8.490;2023-07-02T02:40:39;7.88;;;7.05;;
14030;SDS011;7090;49.436;8.490;2023-07-02T02:43:05;6.22;;;6.03;;
14030;SDS011;7090;49.436;8.490;2023-07-02T02:45:31;6.00;;;5.80;;
14030;SDS011;7090;49.436;8.490;2023-07-02T02:47:56;6.13;;;5.93;;
14030;SDS011;7090;49.436;8.490;2023-07-02T02:50:22;6.38;;;6.18;;
14030;SDS011;7090;49.436;8.490;2023-07-02T02:52:48;7.57;;;6.90;;
14030;SDS011;7090;49.436;8.490;2023-07-02T02:55:13;6.93;;;6.55;;
14030;SDS011;7090;49.436;8.490;2023-07-02T02:57:39;6.40;;;6.20;;
14030;SDS011;7090;49.436;8.490;2023-07-02T03:00:05;6.70;;;6.40;;
14030;SDS011;7090;49.436;8.490;2023-07-02T03:02:32;9.13;;;8.32;;
14030;SDS011;7090;49.436;8.490;2023-07-02T03:04:57;6.90;;;6.70;;
14030;SDS011;7090;49.436;8.490;2023-07-02T03:07:27;6.85;;;6.65;;
14030;SDS011;7090;49.436;8.490;2023-07-02T03:09:53;6.60;;;6.40;;
14030;SDS011;7090;49.436;8.490;2023-07-02T03:12:19;7.15;;;6.93;;
14030;SDS011;7090;49.436;8.490;2023-07-02T03:14:44;7.93;;;7.53;;
14030;SDS011;7090;49.436;8.490;2023-07-02T03:17:12;8.10;;;7.60;;
14030;SDS011;7090;49.436;8.490;2023-07-02T03:19:38;8.82;;;7.85;;
14030;SDS011;7090;49.436;8.490;2023-07-02T03:22:03;9.05;;;8.45;;
14030;SDS011;7090;49.436;8.490;2023-07-02T03:24:29;7.63;;;7.32;;
14030;SDS011;7090;49.436;8.490;2023-07-02T03:26:55;6.93;;;6.72;;
14030;SDS011;7090;49.436;8.490;2023-07-02T03:29:20;7.20;;;6.90;;
14030;SDS011;7090;49.436;8.490;2023-07-02T03:31:46;8.40;;;8.05;;
14030;SDS011;7090;49.436;8.490;2023-07-02T03:34:12;8.93;;;8.52;;
14030;SDS011;7090;49.436;8.490;2023-07-02T03:36:38;7.82;;;7.53;;
14030;SDS011;7090;49.436;8.490;2023-07-02T03:39:03;8.68;;;8.18;;
14030;SDS011;7090;49.436;8.490;2023-07-02T03:41:29;8.02;;;7.70;;
14030;SDS011;7090;49.436;8.490;2023-07-02T03:43:55;8.52;;;8.10;;
14030;SDS011;7090;49.436;8.490;2023-07-02T03:46:21;9.13;;;8.57;;
14030;SDS011;7090;49.436;8.490;2023-07-02T03:48:46;7.85;;;7.55;;
14030;SDS011;7090;49.436;8.490;2023-07-02T03:51:12;7.80;;;7.50;;
14030;SDS011;7090;49.436;8.490;2023-07-02T03:53:39;9.10;;;8.70;;
14030;SDS011;7090;49.436;8.490;2023-07-02T03:56:07;8.00;;;7.70;;
14030;SDS011;7090;49.436;8.490;2023-07-02T03:58:33;7.65;;;7.35;;
14030;SDS011;7090;49.436;8.490;2023-07-02T04:00:59;10.25;;;9.50;;
14030;SDS011;7090;49.436;8.490;2023-07-02T04:03:24;8.52;;;8.13;;
14030;SDS011;7090;49.436;8.490;2023-07-02T04:05:50;7.30;;;7.00;;
14030;SDS011;7090;49.436;8.490;2023-07-02T04:08:16;8.90;;;8.23;;
14030;SDS011;7090;49.436;8.490;2023-07-02T04:10:41;9.10;;;8.23;;
14030;SDS011;7090;49.436;8.490;2023-07-02T04:13:07;8.32;;;7.93;;
14030;SDS011;7090;49.436;8.490;2023-07-02T04:15:33;7.45;;;7.15;;
14030;SDS011;7090;49.436;8.490;2023-07-02T04:18:00;9.75;;;8.80;;
14030;SDS011;7090;49.436;8.490;2023-07-02T04:20:26;8.30;;;7.90;;
14030;SDS011;7090;49.436;8.490;2023-07-02T04:22:53;8.13;;;7.72;;
14030;SDS011;7090;49.436;8.490;2023-07-02T04:25:19;8.55;;;8.25;;
14030;SDS011;7090;49.436;8.490;2023-07-02T04:27:45;7.00;;;6.80;;
14030;SDS011;7090;49.436;8.490;2023-07-02T04:30:10;10.60;;;8.50;;
14030;SDS011;7090;49.436;8.490;2023-07-02T04:32:37;8.35;;;7.88;;
14030;SDS011;7090;49.436;8.490;2023-07-02T04:35:06;9.43;;;8.82;;
14030;SDS011;7090;49.436;8.490;2023-07-02T04:37:36;7.63;;;7.32;;
14030;SDS011;7090;49.436;8.490;2023-07-02T04:40:02;8.98;;;8.38;;
14030;SDS011;7090;49.436;8.490;2023-07-02T04:42:37;10.43;;;6.72;;
14030;SDS011;7090;49.436;8.490;2023-07-02T04:45:07;7.72;;;7.13;;
14030;SDS011;7090;49.436;8.490;2023-07-02T04:47:33;7.90;;;7.60;;
14030;SDS011;7090;49.436;8.490;2023-07-02T04:49:59;8.90;;;8.27;;
14030;SDS011;7090;49.436;8.490;2023-07-02T04:52:25;7.68;;;7.38;;
14030;SDS011;7090;49.436;8.490;2023-07-02T04:54:51;7.28;;;6.97;;
14030;SDS011;7090;49.436;8.490;2023-07-02T04:57:17;9.27;;;7.75;;
14030;SDS011;7090;49.436;8.490;2023-07-02T04:59:43;7.10;;;6.88;;
14030;SDS011;7090;49.436;8.490;2023-07-02T05:02:08;8.18;;;7.70;;
14030;SDS011;7090;49.436;8.490;2023-07-02T05:04:35;9.40;;;8.52;;
14030;SDS011;7090;49.436;8.490;2023-07-02T05:07:04;9.43;;;8.77;;
14030;SDS011;7090;49.436;8.490;2023-07-02T05:09:30;11.07;;;9.93;;
14030;SDS011;7090;49.436;8.490;2023-07-02T05:11:55;8.07;;;7.68;;
14030;SDS011;7090;49.436;8.490;2023-07-02T05:14:22;10.27;;;9.48;;
14030;SDS011;7090;49.436;8.490;2023-07-02T05:16:48;8.30;;;7.80;;
14030;SDS011;7090;49.436;8.490;2023-07-02T05:19:13;8.38;;;7.68;;
14030;SDS011;7090;49.436;8.490;2023-07-02T05:21:39;9.43;;;8.77;;
14030;SDS011;7090;49.436;8.490;2023-07-02T05:24:05;9.10;;;8.38;;
14030;SDS011;7090;49.436;8.490;2023-07-02T05:26:31;10.23;;;9.32;;
14030;SDS011;7090;49.436;8.490;2023-07-02T05:28:57;8.45;;;7.75;;
14030;SDS011;7090;49.436;8.490;2023-07-02T05:31:23;8.23;;;7.72;;
14030;SDS011;7090;49.436;8.490;2023-07-02T05:33:48;9.07;;;8.45;;
14030;SDS011;7090;49.436;8.490;2023-07-02T05:36:14;6.97;;;6.68;;
14030;SDS011;7090;49.436;8.490;2023-07-02T05:38:40;9.40;;;8.48;;
14030;SDS011;7090;49.436;8.490;2023-07-02T05:41:05;8.35;;;7.85;;
14030;SDS011;7090;49.436;8.490;2023-07-02T05:43:31;8.63;;;7.93;;
14030;SDS011;7090;49.436;8.490;2023-07-02T05:45:59;10.20;;;9.10;;
14030;SDS011;7090;49.436;8.490;2023-07-02T05:48:25;9.57;;;8.52;;
14030;SDS011;7090;49.436;8.490;2023-07-02T05:50:52;8.40;;;7.85;;
14030;SDS011;7090;49.436;8.490;2023-07-02T05:53:17;9.23;;;8.63;;
14030;SDS011;7090;49.436;8.490;2023-07-02T05:55:43;10.25;;;9.10;;
14030;SDS011;7090;49.436;8.490;2023-07-02T05:58:09;7.75;;;7.25;;
14030;SDS011;7090;49.436;8.490;2023-07-02T06:00:35;10.02;;;9.18;;
14030;SDS011;7090;49.436;8.490;2023-07-02T06:03:01;8.73;;;8.00;;
14030;SDS011;7090;49.436;8.490;2023-07-02T06:05:26;8.38;;;7.70;;
14030;SDS011;7090;49.436;8.490;2023-07-02T06:07:52;9.52;;;8.80;;
14030;SDS011;7090;49.436;8.490;2023-07-02T06:10:17;9.68;;;8.85;;
14030;SDS011;7090;49.436;8.490;2023-07-02T06:12:43;10.32;;;9.38;;
14030;SDS011;7090;49.436;8.490;2023-07-02T06:15:09;8.50;;;7.82;;
14030;SDS011;7090;49.436;8.490;2023-07-02T06:17:35;12.85;;;9.77;;
14030;SDS011;7090;49.436;8.490;2023-07-02T06:20:02;10.18;;;9.18;;
14030;SDS011;7090;49.436;8.490;2023-07-02T06:22:29;9.10;;;8.30;;
14030;SDS011;7090;49.436;8.490;2023-07-02T06:24:55;10.18;;;9.27;;
14030;SDS011;7090;49.436;8.490;2023-07-02T06:27:21;11.18;;;10.07;;
14030;SDS011;7090;49.436;8.490;2023-07-02T06:29:47;11.77;;;10.38;;
14030;SDS011;7090;49.436;8.490;2023-07-02T06:32:12;7.88;;;7.38;;
14030;SDS011;7090;49.436;8.490;2023-07-02T06:34:38;8.80;;;8.30;;
14030;SDS011;7090;49.436;8.490;2023-07-02T06:37:04;10.95;;;9.65;;
14030;SDS011;7090;49.436;8.490;2023-07-02T06:39:30;9.30;;;8.57;;
14030;SDS011;7090;49.436;8.490;2023-07-02T06:41:55;9.95;;;8.40;;
14030;SDS011;7090;49.436;8.490;2023-07-02T06:44:21;9.50;;;8.35;;
14030;SDS011;7090;49.436;8.490;2023-07-02T06:46:46;9.80;;;8.77;;
14030;SDS011;7090;49.436;8.490;2023-07-02T06:49:12;11.98;;;9.75;;
14030;SDS011;7090;49.436;8.490;2023-07-02T06:51:38;10.68;;;9.60;;
14030;SDS011;7090;49.436;8.490;2023-07-02T06:54:03;11.73;;;9.77;;
14030;SDS011;7090;49.436;8.490;2023-07-02T06:56:29;9.15;;;8.35;;
14030;SDS011;7090;49.436;8.490;2023-07-02T06:58:56;12.02;;;8.70;;
14030;SDS011;7090;49.436;8.490;2023-07-02T07:01:21;11.30;;;9.05;;
14030;SDS011;7090;49.436;8.490;2023-07-02T07:03:47;8.88;;;8.15;;
14030;SDS011;7090;49.436;8.490;2023-07-02T07:06:12;9.13;;;8.35;;
14030;SDS011;7090;49.436;8.490;2023-07-02T07:08:38;10.85;;;9.10;;
14030;SDS011;7090;49.436;8.490;2023-07-02T07:11:04;8.68;;;8.18;;
14030;SDS011;7090;49.436;8.490;2023-07-02T07:13:29;6.95;;;6.55;;
14030;SDS011;7090;49.436;8.490;2023-07-02T07:15:55;9.52;;;8.70;;
14030;SDS011;7090;49.436;8.490;2023-07-02T07:18:20;12.68;;;10.10;;
14030;SDS011;7090;49.436;8.490;2023-07-02T07:20:46;12.98;;;9.95;;
14030;SDS011;7090;49.436;8.490;2023-07-02T07:23:12;12.98;;;9.68;;
14030;SDS011;7090;49.436;8.490;2023-07-02T07:25:37;15.93;;;10.88;;
14030;SDS011;7090;49.436;8.490;2023-07-02T07:28:03;12.85;;;9.95;;
14030;SDS011;7090;49.436;8.490;2023-07-02T07:30:29;16.13;;;11.63;;
14030;SDS011;7090;49.436;8.490;2023-07-02T07:32:55;7.80;;;7.40;;
14030;SDS011;7090;49.436;8.490;2023-07-02T07:35:21;13.73;;;10.68;;
14030;SDS011;7090;49.436;8.490;2023-07-02T07:37:47;16.58;;;9.85;;
14030;SDS011;7090;49.436;8.490;2023-07-02T07:40:13;23.15;;;12.23;;
14030;SDS011;7090;49.436;8.490;2023-07-02T07:42:40;19.45;;;14.32;;
14030;SDS011;7090;49.436;8.490;2023-07-02T07:45:07;19.95;;;11.15;;
14030;SDS011;7090;49.436;8.490;2023-07-02T07:47:34;15.35;;;11.35;;
14030;SDS011;7090;49.436;8.490;2023-07-02T07:49:59;9.82;;;9.02;;
14030;SDS011;7090;49.436;8.490;2023-07-02T07:52:25;12.15;;;11.05;;
14030;SDS011;7090;49.436;8.490;2023-07-02T07:54:51;18.35;;;13.05;;
14030;SDS011;7090;49.436;8.490;2023-07-02T07:57:16;12.98;;;11.13;;
14030;SDS011;7090;49.436;8.490;2023-07-02T07:59:42;10.02;;;9.23;;
14030;SDS011;7090;49.436;8.490;2023-07-02T08:02:07;13.90;;;10.65;;
14030;SDS011;7090;49.436;8.490;2023-07-02T08:04:34;12.52;;;11.13;;
14030;SDS011;7090;49.436;8.490;2023-07-02T08:06:59;17.90;;;12.32;;
14030;SDS011;7090;49.436;8.490;2023-07-02T08:09:25;14.10;;;12.02;;
14030;SDS011;7090;49.436;8.490;2023-07-02T08:11:50;10.45;;;9.50;;
14030;SDS011;7090;49.436;8.490;2023-07-02T08:14:16;9.25;;;8.60;;
14030;SDS011;7090;49.436;8.490;2023-07-02T08:16:43;11.27;;;10.43;;
14030;SDS011;7090;49.436;8.490;2023-07-02T08:19:09;13.93;;;12.52;;
14030;SDS011;7090;49.436;8.490;2023-07-02T08:21:35;13.38;;;11.35;;
14030;SDS011;7090;49.436;8.490;2023-07-02T08:24:01;19.20;;;13.43;;
14030;SDS011;7090;49.436;8.490;2023-07-02T08:26:27;9.65;;;8.98;;
14030;SDS011;7090;49.436;8.490;2023-07-02T08:28:53;16.65;;;12.45;;
14030;SDS011;7090;49.436;8.490;2023-07-02T08:31:19;13.82;;;12.40;;
14030;SDS011;7090;49.436;8.490;2023-07-02T08:33:44;17.75;;;11.65;;
14030;SDS011;7090;49.436;8.490;2023-07-02T08:36:10;16.67;;;13.13;;
14030;SDS011;7090;49.436;8.490;2023-07-02T08:38:35;9.93;;;9.15;;
14030;SDS011;7090;49.436;8.490;2023-07-02T08:41:01;12.23;;;11.13;;
14030;SDS011;7090;49.436;8.490;2023-07-02T08:43:27;13.32;;;12.07;;
14030;SDS011;7090;49.436;8.490;2023-07-02T08:45:54;18.08;;;11.80;;
14030;SDS011;7090;49.436;8.490;2023-07-02T08:48:20;12.48;;;11.25;;
14030;SDS011;7090;49.436;8.490;2023-07-02T08:50:48;11.77;;;10.68;;
14030;SDS011;7090;49.436;8.490;2023-07-02T08:53:14;14.13;;;12.70;;
14030;SDS011;7090;49.436;8.490;2023-07-02T08:55:41;12.60;;;11.27;;
14030;SDS011;7090;49.436;8.490;2023-07-02T08:58:06;10.43;;;9.60;;
14030;SDS011;7090;49.436;8.490;2023-07-02T09:00:32;12.23;;;10.75;;
14030;SDS011;7090;49.436;8.490;2023-07-02T09:03:14;12.82;;;11.52;;
14030;SDS011;7090;49.436;8.490;2023-07-02T09:05:52;11.55;;;10.50;;
14030;SDS011;7090;49.436;8.490;2023-07-02T09:08:24;16.60;;;12.30;;
14030;SDS011;7090;49.436;8.490;2023-07-02T09:10:51;14.90;;;9.90;;
14030;SDS011;7090;49.436;8.490;2023-07-02T09:13:17;11.50;;;10.43;;
14030;SDS011;7090;49.436;8.490;2023-07-02T09:15:42;15.50;;;13.63;;
14030;SDS011;7090;49.436;8.490;2023-07-02T09:18:16;16.58;;;11.85;;
14030;SDS011;7090;49.436;8.490;2023-07-02T09:20:42;13.45;;;12.13;;
14030;SDS011;7090;49.436;8.490;2023-07-02T09:23:08;13.85;;;11.38;;
14030;SDS011;7090;49.436;8.490;2023-07-02T09:25:37;12.20;;;11.15;;
14030;SDS011;7090;49.436;8.490;2023-07-02T09:28:13;15.90;;;12.65;;
14030;SDS011;7090;49.436;8.490;2023-07-02T09:30:52;15.10;;;12.80;;
14030;SDS011;7090;49.436;8.490;2023-07-02T09:33:19;18.00;;;13.27;;
14030;SDS011;7090;49.436;8.490;2023-07-02T09:35:45;10.13;;;9.32;;
14030;SDS011;7090;49.436;8.490;2023-07-02T09:38:11;12.50;;;11.23;;
14030;SDS011;7090;49.436;8.490;2023-07-02T09:40:39;10.32;;;9.50;;
14030;SDS011;7090;49.436;8.490;2023-07-02T09:43:14;14.35;;;10.85;;
14030;SDS011;7090;49.436;8.490;2023-07-02T09:45:42;11.38;;;10.48;;
14030;SDS011;7090;49.436;8.490;2023-07-02T09:48:13;9.88;;;9.23;;
14030;SDS011;7090;49.436;8.490;2023-07-02T09:50:42;14.57;;;12.52;;
14030;SDS011;7090;49.436;8.490;2023-07-02T09:53:09;10.95;;;9.90;;
14030;SDS011;7090;49.436;8.490;2023-07-02T09:55:35;12.25;;;10.88;;
14030;SDS011;7090;49.436;8.490;2023-07-02T09:58:02;9.38;;;8.57;;
14030;SDS011;7090;49.436;8.490;2023-07-02T10:00:28;14.30;;;11.02;;
14030;SDS011;7090;49.436;8.490;2023-07-02T10:02:53;11.20;;;10.25;;
14030;SDS011;7090;49.436;8.490;2023-07-02T10:05:26;20.13;;;14.27;;
14030;SDS011;7090;49.436;8.490;2023-07-02T10:07:56;20.88;;;14.05;;
14030;SDS011;7090;49.436;8.490;2023-07-02T10:10:29;13.00;;;10.50;;
14030;SDS011;7090;49.436;8.490;2023-07-02T10:12:55;11.32;;;10.23;;
14030;SDS011;7090;49.436;8.490;2023-07-02T10:15:25;14.07;;;11.88;;
14030;SDS011;7090;49.436;8.490;2023-07-02T10:17:58;11.95;;;10.30;;
14030;SDS011;7090;49.436;8.490;2023-07-02T10:20:35;12.70;;;10.52;;
14030;SDS011;7090;49.436;8.490;2023-07-02T10:23:05;12.50;;;11.43;;
14030;SDS011;7090;49.436;8.490;2023-07-02T10:25:32;13.93;;;11.90;;
14030;SDS011;7090;49.436;8.490;2023-07-02T10:28:13;18.52;;;12.45;;
14030;SDS011;7090;49.436;8.490;2023-07-02T10:30:40;12.38;;;11.18;;
14030;SDS011;7090;49.436;8.490;2023-07-02T10:33:10;9.10;;;8.40;;
14030;SDS011;7090;49.436;8.490;2023-07-02T10:35:40;13.40;;;11.30;;
14030;SDS011;7090;49.436;8.490;2023-07-02T10:38:17;11.68;;;10.57;;
14030;SDS011;7090;49.436;8.490;2023-07-02T10:40:44;16.83;;;12.57;;
14030;SDS011;7090;49.436;8.490;2023-07-02T10:43:10;20.15;;;14.63;;
14030;SDS011;7090;49.436;8.490;2023-07-02T10:45:36;16.90;;;14.13;;
14030;SDS011;7090;49.436;8.490;2023-07-02T10:48:08;12.18;;;11.13;;
14030;SDS011;7090;49.436;8.490;2023-07-02T10:50:34;17.08;;;13.75;;
14030;SDS011;7090;49.436;8.490;2023-07-02T10:53:00;13.25;;;11.90;;
14030;SDS011;7090;49.436;8.490;2023-07-02T10:55:26;15.38;;;13.25;;
14030;SDS011;7090;49.436;8.490;2023-07-02T10:58:03;12.88;;;11.88;;
14030;SDS011;7090;49.436;8.490;2023-07-02T11:00:29;12.40;;;11.18;;
14030;SDS011;7090;49.436;8.490;2023-07-02T11:02:55;10.55;;;9.55;;
14030;SDS011;7090;49.436;8.490;2023-07-02T11:05:21;10.00;;;9.10;;
14030;SDS011;7090;49.436;8.490;2023-07-02T11:07:46;14.68;;;12.32;;
14030;SDS011;7090;49.436;8.490;2023-07-02T11:10:17;12.07;;;10.93;;
14030;SDS011;7090;49.436;8.490;2023-07-02T11:12:43;11.77;;;10.75;;
14030;SDS011;7090;49.436;8.490;2023-07-02T11:15:10;13.80;;;12.35;;
14030;SDS011;7090;49.436;8.490;2023-07-02T11:17:38;18.02;;;13.07;;
14030;SDS011;7090;49.436;8.490;2023-07-02T11:20:10;15.93;;;13.60;;
14030;SDS011;7090;49.436;8.490;2023-07-02T11:22:37;14.02;;;11.88;;
14030;SDS011;7090;49.436;8.490;2023-07-02T11:25:13;12.90;;;10.63;;
14030;SDS011;7090;49.436;8.490;2023-07-02T11:27:43;11.68;;;10.85;;
14030;SDS011;7090;49.436;8.490;2023-07-02T11:30:09;13.45;;;12.18;;
14030;SDS011;7090;49.436;8.490;2023-07-02T11:32:48;12.95;;;11.88;;
14030;SDS011;7090;49.436;8.490;2023-07-02T11:35:15;11.13;;;10.43;;
14030;SDS011;7090;49.436;8.490;2023-07-02T11:37:42;14.70;;;13.23;;
14030;SDS011;7090;49.436;8.490;2023-07-02T11:40:08;12.35;;;11.43;;
14030;SDS011;7090;49.436;8.490;2023-07-02T11:42:34;11.23;;;10.43;;
14030;SDS011;7090;49.436;8.490;2023-07-02T11:44:59;16.83;;;12.52;;
14030;SDS011;7090;49.436;8.490;2023-07-02T11:47:25;13.65;;;12.35;;
14030;SDS011;7090;49.436;8.490;2023-07-02T11:49:52;14.35;;;10.80;;
14030;SDS011;7090;49.436;8.490;2023-07-02T11:52:19;12.85;;;11.75;;
14030;SDS011;7090;49.436;8.490;2023-07-02T11:54:45;10.48;;;9.65;;
14030;SDS011;7090;49.436;8.490;2023-07-02T11:57:11;13.88;;;11.38;;
14030;SDS011;7090;49.436;8.490;2023-07-02T11:59:37;12.57;;;11.52;;
14030;SDS011;7090;49.436;8.490;2023-07-02T12:02:03;9.57;;;9.07;;
14030;SDS011;7090;49.436;8.490;2023-07-02T12:04:29;9.32;;;8.93;;
14030;SDS011;7090;49.436;8.490;2023-07-02T12:06:55;14.63;;;13.02;;
14030;SDS011;7090;49.436;8.490;2023-07-02T12:09:20;12.70;;;11.68;;
14030;SDS011;7090;49.436;8.490;2023-07-02T12:11:46;18.00;;;13.18;;
14030;SDS011;7090;49.436;8.490;2023-07-02T12:14:11;14.55;;;13.07;;
14030;SDS011;7090;49.436;8.490;2023-07-02T12:16:37;12.38;;;11.35;;
14030;SDS011;7090;49.436;8.490;2023-07-02T12:19:03;19.10;;;14.25;;
14030;SDS011;7090;49.436;8.490;2023-07-02T12:21:28;11.43;;;10.50;;
14030;SDS011;7090;49.436;8.490;2023-07-02T12:23:54;14.45;;;11.77;;
14030;SDS011;7090;49.436;8.490;2023-07-02T12:26:19;15.50;;;13.07;;
14030;SDS011;7090;49.436;8.490;2023-07-02T12:28:45;14.55;;;12.57;;
14030;SDS011;7090;49.436;8.490;2023-07-02T12:31:11;12.95;;;11.25;;
14030;SDS011;7090;49.436;8.490;2023-07-02T12:33:37;14.23;;;11.70;;
14030;SDS011;7090;49.436;8.490;2023-07-02T12:36:04;11.50;;;10.60;;
14030;SDS011;7090;49.436;8.490;2023-07-02T12:38:29;10.40;;;9.70;;
14030;SDS011;7090;49.436;8.490;2023-07-02T12:40:55;10.43;;;9.73;;
14030;SDS011;7090;49.436;8.490;2023-07-02T12:43:20;12.60;;;11.30;;
14030;SDS011;7090;49.436;8.490;2023-07-02T12:45:46;12.52;;;11.40;;
14030;SDS011;7090;49.436;8.490;2023-07-02T12:48:12;16.10;;;12.65;;
14030;SDS011;7090;49.436;8.490;2023-07-02T12:50:38;14.07;;;12.88;;
14030;SDS011;7090;49.436;8.490;2023-07-02T12:53:04;9.60;;;9.10;;
14030;SDS011;7090;49.436;8.490;2023-07-02T12:55:30;11.20;;;10.43;;
14030;SDS011;7090;49.436;8.490;2023-07-02T12:57:55;11.48;;;10.65;;
14030;SDS011;7090;49.436;8.490;2023-07-02T13:00:21;12.57;;;11.32;;
14030;SDS011;7090;49.436;8.490;2023-07-02T13:02:47;20.70;;;13.10;;
14030;SDS011;7090;49.436;8.490;2023-07-02T13:05:13;13.02;;;11.60;;
14030;SDS011;7090;49.436;8.490;2023-07-02T13:07:39;11.55;;;10.63;;
14030;SDS011;7090;49.436;8.490;2023-07-02T13:10:05;13.60;;;12.25;;
14030;SDS011;7090;49.436;8.490;2023-07-02T13:12:31;19.35;;;12.80;;
14030;SDS011;7090;49.436;8.490;2023-07-02T13:14:57;13.00;;;11.75;;
14030;SDS011;7090;49.436;8.490;2023-07-02T13:17:23;14.15;;;12.82;;
14030;SDS011;7090;49.436;8.490;2023-07-02T13:19:48;10.90;;;9.98;;
14030;SDS011;7090;49.436;8.490;2023-07-02T13:22:14;11.88;;;10.63;;
14030;SDS011;7090;49.436;8.490;2023-07-02T13:24:40;14.32;;;12.88;;
14030;SDS011;7090;49.436;8.490;2023-07-02T13:27:09;11.95;;;10.98;;
14030;SDS011;7090;49.436;8.490;2023-07-02T13:29:44;12.20;;;11.20;;
14030;SDS011;7090;49.436;8.490;2023-07-02T13:32:09;15.80;;;11.88;;
14030;SDS011;7090;49.436;8.490;2023-07-02T13:34:36;15.82;;;14.48;;
14030;SDS011;7090;49.436;8.490;2023-07-02T13:37:02;12.48;;;11.48;;
14030;SDS011;7090;49.436;8.490;2023-07-02T13:39:28;12.40;;;11.18;;
14030;SDS011;7090;49.436;8.490;2023-07-02T13:41:54;10.70;;;10.00;;
14030;SDS011;7090;49.436;8.490;2023-07-02T13:44:20;13.82;;;12.18;;
14030;SDS011;7090;49.436;8.490;2023-07-02T13:46:46;11.48;;;10.68;;
14030;SDS011;7090;49.436;8.490;2023-07-02T13:49:12;13.20;;;12.07;;
14030;SDS011;7090;49.436;8.490;2023-07-02T13:51:38;11.00;;;10.20;;
14030;SDS011;7090;49.436;8.490;2023-07-02T13:54:03;12.95;;;11.70;;
14030;SDS011;7090;49.436;8.490;2023-07-02T13:56:29;13.63;;;12.20;;
14030;SDS011;7090;49.436;8.490;2023-07-02T14:01:20;22.90;;;11.40;;
14030;SDS011;7090;49.436;8.490;2023-07-02T14:03:47;13.70;;;12.05;;
14030;SDS011;7090;49.436;8.490;2023-07-02T14:06:12;13.07;;;10.90;;
14030;SDS011;7090;49.436;8.490;2023-07-02T14:08:38;13.32;;;12.07;;
14030;SDS011;7090;49.436;8.490;2023-07-02T14:11:03;12.32;;;11.32;;
14030;SDS011;7090;49.436;8.490;2023-07-02T14:13:29;14.98;;;13.38;;
14030;SDS011;7090;49.436;8.490;2023-07-02T14:15:55;12.95;;;11.63;;
14030;SDS011;7090;49.436;8.490;2023-07-02T14:18:21;11.85;;;10.95;;
14030;SDS011;7090;49.436;8.490;2023-07-02T14:20:46;14.45;;;11.93;;
14030;SDS011;7090;49.436;8.490;2023-07-02T14:23:12;11.45;;;10.65;;
14030;SDS011;7090;49.436;8.490;2023-07-02T14:25:37;11.65;;;10.50;;
14030;SDS011;7090;49.436;8.490;2023-07-02T14:28:03;13.95;;;12.20;;
14030;SDS011;7090;49.436;8.490;2023-07-02T14:30:29;13.18;;;11.95;;
14030;SDS011;7090;49.436;8.490;2023-07-02T14:32:55;13.35;;;12.18;;
14030;SDS011;7090;49.436;8.490;2023-07-02T14:35:20;18.80;;;14.32;;
14030;SDS011;7090;49.436;8.490;2023-07-02T14:37:50;18.80;;;14.15;;
14030;SDS011;7090;49.436;8.490;2023-07-02T14:40:16;11.82;;;11.00;;
14030;SDS011;7090;49.436;8.490;2023-07-02T14:42:41;13.57;;;11.90;;
14030;SDS011;7090;49.436;8.490;2023-07-02T14:45:07;13.05;;;12.00;;
14030;SDS011;7090;49.436;8.490;2023-07-02T14:47:34;11.70;;;10.82;;